Данни от 17.09.2019 г. 15:51:03

Температура вътрешна: 24.6 °C
Температура външна: 34.1 °C
Атмосферно налягане: 994.7 hPa
Атмосферно налягане на морско равнище: 1012.4 hPa
Влажност: 40.8 %



История от последните 24 часа

Дата и часTin [°C]P [hPa]Psl [hPa]H [%]Tout [°C]
   17.09.2019 г. 15:30:02      24.5      994.8      1012.6      41.0      32.9   
   17.09.2019 г. 15:00:02      24.5      995.2      1013.0      40.9      31.7   
   17.09.2019 г. 14:30:02      24.4      995.4      1013.2      41.2      30.5   
   17.09.2019 г. 14:00:02      24.4      995.6      1013.4      41.9      29.3   
   17.09.2019 г. 13:30:02      24.4      995.9      1013.6      42.2      28.1   
   17.09.2019 г. 13:00:02      24.4      996.2      1014.0      42.6      27.1   
   17.09.2019 г. 12:30:02      24.4      996.4      1014.2      43.0      26.5   
   17.09.2019 г. 12:00:03      24.4      996.5      1014.3      43.0      25.6   
   17.09.2019 г. 11:30:02      24.4      996.7      1014.5      43.2      24.5   
   17.09.2019 г. 11:00:03      24.3      996.8      1014.6      42.3      23.3   
   17.09.2019 г. 10:30:02      24.2      996.9      1014.7      43.4      21.8   
   17.09.2019 г. 10:00:03      24.2      997.0      1014.8      42.7      20.4   
   17.09.2019 г. 09:30:02      24.1      996.9      1014.7      42.2      19.0   
   17.09.2019 г. 09:00:03      24.0      997.0      1014.7      41.9      18.0   
   17.09.2019 г. 08:30:02      23.8      996.6      1014.4      42.2      17.0   
   17.09.2019 г. 08:00:03      23.9      996.5      1014.3      42.1      16.4   
   17.09.2019 г. 07:30:02      23.8      996.4      1014.2      42.5      16.4   
   17.09.2019 г. 07:00:03      23.9      996.3      1014.1      42.6      16.5   
   17.09.2019 г. 06:30:02      23.9      996.2      1014.0      42.9      16.8   
   17.09.2019 г. 06:00:02      23.5      996.1      1013.9      42.9      17.1   
   17.09.2019 г. 05:30:02      23.5      996.1      1013.9      42.3      17.3   
   17.09.2019 г. 05:00:02      23.7      996.4      1014.2      42.7      17.6   
   17.09.2019 г. 04:30:02      24.0      996.4      1014.2      41.9      18.1   
   17.09.2019 г. 04:00:02      23.8      996.5      1014.3      42.0      18.5   
   17.09.2019 г. 03:30:02      23.9      996.6      1014.3      41.7      18.8   
   17.09.2019 г. 03:00:02      24.2      996.5      1014.3      42.5      19.4   
   17.09.2019 г. 02:30:02      24.3      996.6      1014.4      41.6      20.3   
   17.09.2019 г. 02:00:02      24.4      996.7      1014.5      40.8      20.8   
   17.09.2019 г. 01:30:02      24.4      996.8      1014.6      41.8      21.0   
   17.09.2019 г. 01:00:02      24.4      996.8      1014.6      41.8      21.4   
   17.09.2019 г. 00:30:02      24.4      996.8      1014.5      42.3      21.9   
   17.09.2019 г. 00:00:02      24.4      997.0      1014.8      41.5      22.0   
   16.09.2019 г. 23:30:02      24.5      997.1      1014.9      42.2      22.3   
   16.09.2019 г. 23:00:02      24.4      997.1      1014.9      41.7      22.3   
   16.09.2019 г. 22:30:03      24.6      997.0      1014.8      42.2      21.9   
   16.09.2019 г. 22:00:02      24.5      996.9      1014.7      43.2      21.6   
   16.09.2019 г. 21:30:03      24.5      996.9      1014.7      44.5      21.4   
   16.09.2019 г. 21:00:02      24.6      996.9      1014.7      44.6      21.6   
   16.09.2019 г. 20:30:03      24.6      996.8      1014.6      44.9      22.5   
   16.09.2019 г. 20:00:02      24.6      996.7      1014.5      44.6      23.9   
   16.09.2019 г. 19:30:03      24.5      996.6      1014.4      43.6      26.4   
   16.09.2019 г. 19:00:02      24.5      996.7      1014.5      42.4      30.1   
   16.09.2019 г. 18:30:03      24.3      996.8      1014.6      41.8      31.0   
   16.09.2019 г. 18:00:02      24.3      996.9      1014.7      41.4      31.8   
   16.09.2019 г. 17:30:03      24.3      997.1      1014.9      41.5      31.9   
   16.09.2019 г. 17:00:02      24.3      997.3      1015.1      41.0      33.8   
   16.09.2019 г. 16:30:03      24.3      997.5      1015.3      42.0      32.6   
   16.09.2019 г. 16:00:02      24.4      997.8      1015.6      41.0      31.4   

BaroSL graphic

TEMPE graphic